createdAt,value
2023-05-05T00:00:33.944Z,23.64
2023-05-05T00:03:02.471Z,23.63
2023-05-05T00:05:32.545Z,23.63
2023-05-05T00:08:00.944Z,23.63
2023-05-05T00:10:29.481Z,23.63
2023-05-05T00:12:57.876Z,23.63
2023-05-05T00:15:27.502Z,23.64
2023-05-05T00:17:56.406Z,23.63
2023-05-05T00:20:24.852Z,23.63
2023-05-05T00:22:54.588Z,23.64
2023-05-05T00:25:22.976Z,23.63
2023-05-05T00:27:51.371Z,23.63
2023-05-05T00:30:20.246Z,23.63
2023-05-05T00:32:49.558Z,23.64
2023-05-05T00:35:18.067Z,23.62
2023-05-05T00:37:46.403Z,23.63
2023-05-05T00:40:17.442Z,23.64
2023-05-05T00:42:47.147Z,23.63
2023-05-05T00:45:16.857Z,23.63
2023-05-05T00:47:49.180Z,23.63
2023-05-05T00:50:23.781Z,23.63
2023-05-05T00:52:52.732Z,23.63
2023-05-05T00:55:22.797Z,23.64
2023-05-05T00:57:51.237Z,23.64
2023-05-05T01:00:19.870Z,23.64
2023-05-05T01:02:48.364Z,23.63
2023-05-05T01:05:17.015Z,23.63
2023-05-05T01:08:05.102Z,23.63
2023-05-05T01:10:38.287Z,23.63
2023-05-05T01:13:22.492Z,23.63
2023-05-05T01:15:53.668Z,23.62
2023-05-05T01:18:29.446Z,23.63
2023-05-05T01:21:00.968Z,23.63
2023-05-05T01:23:54.885Z,23.62
2023-05-05T01:26:39.002Z,23.61
2023-05-05T01:29:39.480Z,23.62
2023-05-05T01:32:11.252Z,23.61
2023-05-05T01:34:43.309Z,23.61
2023-05-05T01:37:13.447Z,23.62
2023-05-05T01:39:42.324Z,23.63
2023-05-05T01:42:14.028Z,23.63
2023-05-05T01:44:44.628Z,23.63
2023-05-05T01:47:17.150Z,23.62
2023-05-05T01:49:47.350Z,23.61
2023-05-05T01:52:16.093Z,23.61
2023-05-05T01:54:44.859Z,23.62
2023-05-05T01:57:13.233Z,23.60
2023-05-05T01:59:41.758Z,23.62
2023-05-05T02:02:12.629Z,23.60
2023-05-05T02:04:43.747Z,23.62
2023-05-05T02:07:12.676Z,23.62
2023-05-05T02:09:41.052Z,23.61
2023-05-05T02:12:09.773Z,23.61
2023-05-05T02:14:38.183Z,23.60
2023-05-05T02:17:06.774Z,23.61
2023-05-05T02:19:44.286Z,23.61
2023-05-05T02:22:15.633Z,23.60
2023-05-05T02:24:44.328Z,23.62
2023-05-05T02:27:12.759Z,23.61
2023-05-05T02:29:46.072Z,23.62
2023-05-05T02:32:19.573Z,23.61
2023-05-05T02:34:49.369Z,23.61
2023-05-05T02:37:23.272Z,23.62
2023-05-05T02:39:59.182Z,23.61
2023-05-05T02:42:33.599Z,23.60
2023-05-05T02:45:05.967Z,23.60
2023-05-05T02:47:36.852Z,23.61
2023-05-05T02:50:08.862Z,23.60
2023-05-05T02:52:37.455Z,23.59
2023-05-05T02:55:06.714Z,23.60
2023-05-05T02:57:39.587Z,23.59
2023-05-05T03:00:12.286Z,23.60
2023-05-05T03:02:45.962Z,23.60
2023-05-05T03:05:20.812Z,23.60
2023-05-05T03:07:55.448Z,23.61
2023-05-05T03:10:28.785Z,23.59
2023-05-05T03:12:59.416Z,23.59
2023-05-05T03:15:41.518Z,23.59
2023-05-05T03:18:11.874Z,23.60
2023-05-05T03:20:41.977Z,23.60
2023-05-05T03:23:10.473Z,23.60
2023-05-05T03:25:45.719Z,23.60
2023-05-05T03:28:14.807Z,23.59
2023-05-05T03:30:43.208Z,23.60
2023-05-05T03:33:11.966Z,23.60
2023-05-05T03:35:41.828Z,23.60
2023-05-05T03:38:10.163Z,23.61
2023-05-05T03:40:44.145Z,23.60
2023-05-05T03:43:13.433Z,23.59
2023-05-05T03:45:42.222Z,23.60
2023-05-05T03:48:10.667Z,23.60
2023-05-05T03:50:39.111Z,23.60
2023-05-05T03:53:08.887Z,23.62
2023-05-05T03:55:37.318Z,23.60
2023-05-05T03:58:05.799Z,23.61
2023-05-05T04:00:34.310Z,23.61
2023-05-05T04:03:03.096Z,23.61
2023-05-05T04:05:31.862Z,23.61
2023-05-05T04:08:00.286Z,23.61
2023-05-05T04:10:30.131Z,23.62
2023-05-05T04:13:01.398Z,23.62
2023-05-05T04:15:30.279Z,23.62
2023-05-05T04:17:58.859Z,23.61
2023-05-05T04:20:27.417Z,23.60
2023-05-05T04:22:55.905Z,23.62
2023-05-05T04:25:24.345Z,23.61
2023-05-05T04:27:54.117Z,23.62
2023-05-05T04:30:22.548Z,23.62
2023-05-05T04:32:51.088Z,23.62
2023-05-05T04:35:19.654Z,23.61
2023-05-05T04:37:48.756Z,23.62
2023-05-05T04:40:17.458Z,23.63
2023-05-05T04:42:45.917Z,23.63
2023-05-05T04:45:15.885Z,23.64
2023-05-05T04:47:44.386Z,23.64
2023-05-05T04:50:13.672Z,23.64
2023-05-05T04:52:42.139Z,23.64
2023-05-05T04:55:12.174Z,23.64
2023-05-05T04:57:40.552Z,23.65
2023-05-05T05:00:10.723Z,23.64
2023-05-05T05:02:41.745Z,23.64
2023-05-05T05:05:11.177Z,23.64
2023-05-05T05:07:39.774Z,23.64
2023-05-05T05:10:12.278Z,23.64
2023-05-05T05:12:40.705Z,23.62
2023-05-05T05:15:11.557Z,23.64
2023-05-05T05:17:41.332Z,23.67
2023-05-05T05:20:10.811Z,23.68
2023-05-05T05:22:39.384Z,23.67
2023-05-05T05:25:08.495Z,23.73
2023-05-05T05:27:36.881Z,23.70
2023-05-05T05:30:06.024Z,23.73
2023-05-05T05:32:34.651Z,23.73
2023-05-05T05:35:04.611Z,23.75
2023-05-05T05:37:33.241Z,23.78
2023-05-05T05:40:01.714Z,23.79
2023-05-05T05:42:30.214Z,23.71
2023-05-05T05:44:58.905Z,23.72
2023-05-05T05:47:28.097Z,23.72
2023-05-05T05:49:56.560Z,23.65
2023-05-05T05:52:26.450Z,23.55
2023-05-05T05:54:54.856Z,23.62
2023-05-05T05:57:24.643Z,23.68
2023-05-05T05:59:54.040Z,23.67
2023-05-05T06:02:22.473Z,23.64
2023-05-05T06:04:50.842Z,23.63
2023-05-05T06:07:19.459Z,23.62
2023-05-05T06:09:49.496Z,23.60
2023-05-05T06:12:17.973Z,23.60
2023-05-05T06:14:46.476Z,23.65
2023-05-05T06:17:14.844Z,23.68
2023-05-05T06:19:45.160Z,23.68
2023-05-05T06:22:14.757Z,23.72
2023-05-05T06:24:43.171Z,23.73
2023-05-05T06:27:12.978Z,23.76
2023-05-05T06:29:41.746Z,23.75
2023-05-05T06:32:10.194Z,23.76
2023-05-05T06:34:38.585Z,23.79
2023-05-05T06:37:06.970Z,23.76
2023-05-05T06:39:35.509Z,23.73
2023-05-05T06:42:04.230Z,23.70
2023-05-05T06:44:34.871Z,23.64
2023-05-05T06:47:03.370Z,23.66
2023-05-05T06:49:31.779Z,23.66
2023-05-05T06:52:00.492Z,23.65
2023-05-05T06:54:28.858Z,23.65
2023-05-05T06:56:59.441Z,23.66
2023-05-05T06:59:28.124Z,23.68
2023-05-05T07:01:58.142Z,23.69
2023-05-05T07:04:27.484Z,23.70
2023-05-05T07:06:58.418Z,23.68
2023-05-05T07:09:26.841Z,23.63
2023-05-05T07:11:55.229Z,23.64
2023-05-05T07:14:24.575Z,23.66
2023-05-05T07:16:53.112Z,23.63
2023-05-05T07:19:23.600Z,23.64
2023-05-05T07:21:52.229Z,23.64
2023-05-05T07:24:20.704Z,23.58
2023-05-05T07:26:49.441Z,23.54
2023-05-05T07:29:17.879Z,23.52
2023-05-05T07:31:46.528Z,23.49
2023-05-05T07:34:15.073Z,23.53
2023-05-05T07:36:45.352Z,23.52
2023-05-05T07:39:15.444Z,23.50
2023-05-05T07:41:44.308Z,23.51
2023-05-05T07:44:12.763Z,23.52
2023-05-05T07:46:42.012Z,23.58
2023-05-05T07:49:10.499Z,23.63
2023-05-05T07:51:38.923Z,23.57
2023-05-05T07:54:08.765Z,23.48
2023-05-05T07:56:37.179Z,23.45
2023-05-05T07:59:05.943Z,23.50
2023-05-05T08:01:34.457Z,23.49
2023-05-05T08:04:02.966Z,23.52
2023-05-05T08:06:32.342Z,23.56
2023-05-05T08:09:01.855Z,23.54
2023-05-05T08:11:31.766Z,23.57
2023-05-05T08:14:00.504Z,23.59
2023-05-05T08:16:28.990Z,23.56
2023-05-05T08:18:57.418Z,23.57
2023-05-05T08:21:26.328Z,23.59
2023-05-05T08:23:54.867Z,23.59
2023-05-05T08:26:23.649Z,23.62
2023-05-05T08:28:55.957Z,23.65
2023-05-05T08:31:24.388Z,23.69
2023-05-05T08:33:52.888Z,23.72
2023-05-05T08:36:21.454Z,23.73
2023-05-05T08:38:49.909Z,23.71
2023-05-05T08:41:19.057Z,23.74
2023-05-05T08:43:48.331Z,23.79
2023-05-05T08:46:18.430Z,23.79
2023-05-05T08:48:47.079Z,23.76
2023-05-05T08:51:18.759Z,23.80
2023-05-05T08:53:53.441Z,23.79
2023-05-05T08:56:22.479Z,23.79
2023-05-05T08:58:51.607Z,23.81
2023-05-05T09:01:21.906Z,23.81
2023-05-05T09:03:50.549Z,23.80
2023-05-05T09:06:19.244Z,23.82
2023-05-05T09:08:47.558Z,23.81
2023-05-05T09:11:16.158Z,23.81
2023-05-05T09:13:47.769Z,23.84
2023-05-05T09:16:16.691Z,23.84
2023-05-05T09:18:46.597Z,23.81
2023-05-05T09:21:22.140Z,23.86
2023-05-05T09:24:11.687Z,23.86
2023-05-05T09:26:42.527Z,23.86
2023-05-05T09:29:11.056Z,23.89
2023-05-05T09:31:39.678Z,23.89
2023-05-05T09:34:19.057Z,23.90
2023-05-05T09:36:49.204Z,23.90
2023-05-05T09:39:19.464Z,23.92
2023-05-05T09:41:47.995Z,23.86
2023-05-05T09:44:17.105Z,23.80
2023-05-05T09:46:52.709Z,23.81
2023-05-05T09:49:25.625Z,23.85
2023-05-05T09:51:54.440Z,23.80
2023-05-05T09:54:24.737Z,23.79
2023-05-05T09:56:53.305Z,23.76
2023-05-05T09:59:22.252Z,23.74
2023-05-05T10:01:51.249Z,23.76
2023-05-05T10:04:28.417Z,23.76
2023-05-05T10:06:57.401Z,23.77
2023-05-05T10:09:25.971Z,23.77
2023-05-05T10:11:54.941Z,23.78
2023-05-05T10:14:23.290Z,23.79
2023-05-05T10:16:53.557Z,23.77
2023-05-05T10:19:23.336Z,23.77
2023-05-05T10:21:54.081Z,23.76
2023-05-05T10:24:29.790Z,23.78
2023-05-05T10:26:59.912Z,23.76
2023-05-05T10:29:38.685Z,23.76
2023-05-05T10:32:33.533Z,23.73
2023-05-05T10:35:02.717Z,23.71
2023-05-05T10:37:32.823Z,23.71
2023-05-05T10:40:01.420Z,23.71
2023-05-05T10:42:29.950Z,23.75
2023-05-05T10:44:58.952Z,23.74
2023-05-05T10:47:27.443Z,23.74
2023-05-05T10:49:58.530Z,23.78
2023-05-05T10:52:33.505Z,23.80
2023-05-05T10:55:09.593Z,23.84
2023-05-05T10:57:41.940Z,23.84
2023-05-05T11:00:12.896Z,23.81
2023-05-05T11:02:42.484Z,23.80
2023-05-05T11:05:15.324Z,23.79
2023-05-05T11:07:45.480Z,23.81
2023-05-05T11:10:15.585Z,23.81
2023-05-05T11:13:21.967Z,23.80
2023-05-05T11:15:51.442Z,23.83
2023-05-05T11:18:37.736Z,23.82
2023-05-05T11:21:16.722Z,23.83
2023-05-05T11:23:51.129Z,23.83
2023-05-05T11:26:40.568Z,23.83
2023-05-05T11:29:08.952Z,23.83
2023-05-05T11:31:37.935Z,23.84
2023-05-05T11:34:26.878Z,23.83
2023-05-05T11:36:58.852Z,23.83
2023-05-05T11:39:42.918Z,23.84
2023-05-05T11:42:32.186Z,23.84
2023-05-05T11:45:00.836Z,23.84
2023-05-05T11:47:31.072Z,23.86
2023-05-05T11:50:17.477Z,23.85
2023-05-05T11:52:45.958Z,23.85
2023-05-05T11:55:22.135Z,23.85
2023-05-05T11:57:50.654Z,23.85
2023-05-05T12:00:20.092Z,23.85
2023-05-05T12:02:48.650Z,23.85
2023-05-05T12:05:21.303Z,23.86
2023-05-05T12:07:49.748Z,23.86
2023-05-05T12:10:25.752Z,23.87
2023-05-05T12:12:55.461Z,23.87
2023-05-05T12:15:31.419Z,23.88
2023-05-05T12:18:02.419Z,23.87
2023-05-05T12:20:33.332Z,23.88
2023-05-05T12:23:04.259Z,23.88
2023-05-05T12:25:43.215Z,23.88
2023-05-05T12:28:11.652Z,23.87
2023-05-05T12:30:40.189Z,23.88
2023-05-05T12:33:09.819Z,23.88
2023-05-05T12:35:38.285Z,23.88
2023-05-05T12:38:06.819Z,23.86
2023-05-05T12:40:47.209Z,23.88
2023-05-05T12:43:31.221Z,23.89
2023-05-05T12:46:08.612Z,23.90
2023-05-05T12:48:38.520Z,23.90
2023-05-05T12:51:21.011Z,23.89
2023-05-05T12:53:50.046Z,23.90
2023-05-05T12:56:35.149Z,23.90
2023-05-05T12:59:04.305Z,23.90
2023-05-05T13:01:32.961Z,23.90
2023-05-05T13:04:13.002Z,23.91
2023-05-05T13:06:41.733Z,23.91
2023-05-05T13:09:11.125Z,23.91
2023-05-05T13:11:41.260Z,23.91
2023-05-05T13:14:09.755Z,23.92
2023-05-05T13:16:38.386Z,23.92
2023-05-05T13:19:06.758Z,23.92
2023-05-05T13:21:35.138Z,23.93
2023-05-05T13:26:35.007Z,23.93
2023-05-05T13:29:05.159Z,23.93
2023-05-05T13:31:33.836Z,23.93
2023-05-05T13:34:02.544Z,23.93
2023-05-05T13:36:31.273Z,23.93
2023-05-05T13:38:59.656Z,23.93
2023-05-05T13:41:28.169Z,23.96
2023-05-05T13:43:56.702Z,23.95
2023-05-05T13:46:26.650Z,23.94
2023-05-05T13:48:56.781Z,23.98
2023-05-05T13:51:25.521Z,23.96
2023-05-05T13:53:54.145Z,23.90
2023-05-05T13:56:26.212Z,23.88
2023-05-05T13:58:54.910Z,23.73
2023-05-05T14:01:25.115Z,23.67
2023-05-05T14:03:55.534Z,23.68
2023-05-05T14:06:26.310Z,23.51
2023-05-05T14:08:54.818Z,23.71
2023-05-05T14:11:23.511Z,23.85
2023-05-05T14:13:52.071Z,23.88
2023-05-05T14:16:20.678Z,23.86
2023-05-05T14:18:50.468Z,23.86
2023-05-05T14:21:21.190Z,23.84
2023-05-05T14:23:49.777Z,23.84
2023-05-05T14:26:18.435Z,23.84
2023-05-05T14:28:49.606Z,23.84
2023-05-05T14:31:18.698Z,23.87
2023-05-05T14:33:47.085Z,23.87
2023-05-05T14:36:17.317Z,23.84
2023-05-05T14:38:45.708Z,23.85
2023-05-05T14:41:14.145Z,23.84
2023-05-05T14:43:42.544Z,23.86
2023-05-05T14:46:11.238Z,23.84
2023-05-05T14:48:39.710Z,23.75
2023-05-05T14:51:08.172Z,23.80
2023-05-05T14:53:38.059Z,23.83
2023-05-05T14:56:07.995Z,23.84
2023-05-05T14:58:36.476Z,23.80
2023-05-05T15:01:05.182Z,23.83
2023-05-05T15:03:33.751Z,23.86
2023-05-05T15:06:02.278Z,23.82
2023-05-05T15:08:30.915Z,23.80
2023-05-05T15:11:00.707Z,23.81
2023-05-05T15:13:29.860Z,23.79
2023-05-05T15:15:58.276Z,23.80
2023-05-05T15:18:26.676Z,23.81
2023-05-05T15:20:55.185Z,23.81
2023-05-05T15:23:23.555Z,23.83
2023-05-05T15:25:52.076Z,23.81
2023-05-05T15:28:21.889Z,23.80
2023-05-05T15:30:50.312Z,23.80
2023-05-05T15:33:18.823Z,23.80
2023-05-05T15:35:47.190Z,23.80
2023-05-05T15:38:15.674Z,23.80
2023-05-05T15:40:47.196Z,23.81
2023-05-05T15:43:17.499Z,23.80
2023-05-05T15:45:47.319Z,23.80
2023-05-05T15:48:15.858Z,23.79
2023-05-05T15:50:44.378Z,23.80
2023-05-05T15:53:13.017Z,23.78
2023-05-05T15:55:41.832Z,23.78
2023-05-05T15:58:10.207Z,23.78
2023-05-05T16:00:38.796Z,23.77
2023-05-05T16:03:08.869Z,23.78
2023-05-05T16:05:37.275Z,23.81
2023-05-05T16:08:09.820Z,23.78
2023-05-05T16:10:38.445Z,23.75
2023-05-05T16:13:07.108Z,23.75
2023-05-05T16:15:36.391Z,23.76
2023-05-05T16:18:05.096Z,23.77
2023-05-05T16:20:35.105Z,23.75
2023-05-05T16:23:03.526Z,23.75
2023-05-05T16:25:32.012Z,23.74
2023-05-05T16:28:01.732Z,23.75
2023-05-05T16:30:30.472Z,23.75
2023-05-05T16:32:59.047Z,23.76
2023-05-05T16:35:27.485Z,23.77
2023-05-05T16:37:57.632Z,23.77
2023-05-05T16:40:25.991Z,23.79
2023-05-05T16:42:54.429Z,23.80
2023-05-05T16:45:24.478Z,23.80
2023-05-05T16:47:53.044Z,23.80
2023-05-05T16:50:21.625Z,23.83
2023-05-05T16:52:50.197Z,23.80
2023-05-05T16:55:20.218Z,23.77
2023-05-05T16:57:48.717Z,23.78
2023-05-05T17:00:17.730Z,23.78
2023-05-05T17:02:46.362Z,23.77
2023-05-05T17:05:14.844Z,23.73
2023-05-05T17:07:43.413Z,23.75
2023-05-05T17:10:12.397Z,23.76
2023-05-05T17:12:42.298Z,23.74
2023-05-05T17:15:11.892Z,23.73
2023-05-05T17:17:41.651Z,23.73
2023-05-05T17:20:12.987Z,23.72
2023-05-05T17:22:41.397Z,23.73
2023-05-05T17:25:11.368Z,23.71
2023-05-05T17:27:41.992Z,23.72
2023-05-05T17:30:11.749Z,23.71
2023-05-05T17:32:40.322Z,23.70
2023-05-05T17:35:09.773Z,23.70
2023-05-05T17:37:38.390Z,23.69
2023-05-05T17:40:08.301Z,23.73
2023-05-05T17:42:36.895Z,23.66
2023-05-05T17:45:08.629Z,23.67
2023-05-05T17:47:37.532Z,23.59
2023-05-05T17:50:07.552Z,23.59
2023-05-05T17:52:36.132Z,23.66
2023-05-05T17:55:04.679Z,23.68
2023-05-05T17:57:33.459Z,23.70
2023-05-05T18:00:07.230Z,23.72
2023-05-05T18:02:36.998Z,23.73
2023-05-05T18:05:06.090Z,23.74
2023-05-05T18:07:34.924Z,23.76
2023-05-05T18:10:03.494Z,23.78
2023-05-05T18:12:31.897Z,23.81
2023-05-05T18:15:01.659Z,23.78
2023-05-05T18:17:31.415Z,23.79
2023-05-05T18:19:59.782Z,23.78
2023-05-05T18:22:28.415Z,23.83
2023-05-05T18:24:59.149Z,23.83
2023-05-05T18:27:27.888Z,23.83
2023-05-05T18:29:56.518Z,23.83
2023-05-05T18:32:25.037Z,23.81
2023-05-05T18:34:54.933Z,23.81
2023-05-05T18:37:23.453Z,23.83
2023-05-05T18:39:52.262Z,23.81
2023-05-05T18:42:21.191Z,23.80
2023-05-05T18:44:49.874Z,23.79
2023-05-05T18:47:18.280Z,23.79
2023-05-05T18:49:46.671Z,23.79
2023-05-05T18:52:17.045Z,23.80
2023-05-05T18:54:45.736Z,23.80
2023-05-05T18:57:14.798Z,23.81
2023-05-05T18:59:43.172Z,23.83
2023-05-05T19:02:11.678Z,23.85
2023-05-05T19:04:41.369Z,23.86
2023-05-05T19:07:10.054Z,23.88
2023-05-05T19:09:39.926Z,23.89
2023-05-05T19:12:08.629Z,23.92
2023-05-05T19:14:37.182Z,23.91
2023-05-05T19:17:05.779Z,23.93
2023-05-05T19:19:34.258Z,23.92
2023-05-05T19:22:03.587Z,23.92
2023-05-05T19:24:32.278Z,23.92
2023-05-05T19:27:03.032Z,23.92
2023-05-05T19:29:32.370Z,23.92
2023-05-05T19:32:00.850Z,23.92
2023-05-05T19:34:29.430Z,23.93
2023-05-05T19:36:57.879Z,23.94
2023-05-05T19:39:26.619Z,23.90
2023-05-05T19:41:55.145Z,23.94
2023-05-05T19:44:25.521Z,23.95
2023-05-05T19:46:54.591Z,23.96
2023-05-05T19:49:23.288Z,23.94
2023-05-05T19:51:52.910Z,23.93
2023-05-05T19:54:22.006Z,23.95
2023-05-05T19:56:50.607Z,23.96
2023-05-05T19:59:19.276Z,23.97
2023-05-05T20:01:49.350Z,23.97
2023-05-05T20:04:18.099Z,23.97
2023-05-05T20:06:46.620Z,23.97
2023-05-05T20:09:15.423Z,23.97
2023-05-05T20:11:44.058Z,23.97
2023-05-05T20:14:12.465Z,23.97
2023-05-05T20:16:42.036Z,23.98
2023-05-05T20:19:12.252Z,23.99
2023-05-05T20:21:41.164Z,23.97
2023-05-05T20:24:10.004Z,24.00
2023-05-05T20:26:38.424Z,23.98
2023-05-05T20:29:06.841Z,23.97
2023-05-05T20:31:35.990Z,23.99
2023-05-05T20:34:04.374Z,23.97
2023-05-05T20:36:34.176Z,23.99
2023-05-05T20:39:02.663Z,23.99
2023-05-05T20:41:31.095Z,24.00
2023-05-05T20:43:59.632Z,23.99
2023-05-05T20:46:28.057Z,23.99
2023-05-05T20:48:56.474Z,23.99
2023-05-05T20:51:25.055Z,23.99
2023-05-05T20:53:54.822Z,23.97
2023-05-05T20:56:23.356Z,23.99
2023-05-05T20:58:51.776Z,24.00
2023-05-05T21:01:20.763Z,24.01
2023-05-05T21:03:49.260Z,23.98
2023-05-05T21:06:19.549Z,23.99
2023-05-05T21:08:48.280Z,23.99
2023-05-05T21:11:18.032Z,23.99
2023-05-05T21:13:46.631Z,23.99
2023-05-05T21:16:15.030Z,23.98
2023-05-05T21:18:46.889Z,23.98
2023-05-05T21:21:15.419Z,23.98
2023-05-05T21:23:43.847Z,23.97
2023-05-05T21:26:12.387Z,23.97
2023-05-05T21:28:42.276Z,23.98
2023-05-05T21:31:21.800Z,23.98
2023-05-05T21:33:50.774Z,23.97
2023-05-05T21:36:19.645Z,23.98
2023-05-05T21:38:48.146Z,23.99
2023-05-05T21:41:16.761Z,23.97
2023-05-05T21:43:46.857Z,23.98
2023-05-05T21:46:17.244Z,23.99
2023-05-05T21:48:48.224Z,23.97
2023-05-05T21:51:17.369Z,23.96
2023-05-05T21:53:46.257Z,23.97
2023-05-05T21:56:14.843Z,23.98
2023-05-05T21:58:43.257Z,23.98
2023-05-05T22:01:13.602Z,23.96
2023-05-05T22:03:43.645Z,23.97
2023-05-05T22:06:12.472Z,23.97
2023-05-05T22:08:41.063Z,23.97
2023-05-05T22:11:09.405Z,23.97
2023-05-05T22:13:39.149Z,23.97
2023-05-05T22:16:08.281Z,23.97
2023-05-05T22:18:39.879Z,23.97
2023-05-05T22:21:09.096Z,23.96
2023-05-05T22:23:39.423Z,23.96
2023-05-05T22:26:08.184Z,23.95
2023-05-05T22:28:40.677Z,23.96
2023-05-05T22:31:11.246Z,23.96
2023-05-05T22:33:42.669Z,23.97
2023-05-05T22:36:15.535Z,23.96
2023-05-05T22:38:45.712Z,23.96
2023-05-05T22:41:16.116Z,23.96
2023-05-05T22:43:50.970Z,23.96
2023-05-05T22:46:26.681Z,23.95
2023-05-05T22:51:53.220Z,23.95
2023-05-05T22:54:23.958Z,23.96
2023-05-05T22:56:53.438Z,23.95
2023-05-05T22:59:30.203Z,23.96
2023-05-05T23:01:59.561Z,23.96
2023-05-05T23:04:30.852Z,23.96
2023-05-05T23:07:00.157Z,23.94
2023-05-05T23:09:29.097Z,23.95
2023-05-05T23:11:58.011Z,23.94
2023-05-05T23:14:26.894Z,23.95
2023-05-05T23:16:56.373Z,23.95
2023-05-05T23:19:25.684Z,23.95
2023-05-05T23:21:57.053Z,23.95
2023-05-05T23:24:26.087Z,23.94
2023-05-05T23:26:55.419Z,23.94
2023-05-05T23:29:26.769Z,23.96
2023-05-05T23:31:56.098Z,23.94
2023-05-05T23:34:25.804Z,23.94
2023-05-05T23:36:56.339Z,23.95
2023-05-05T23:39:25.492Z,23.95
2023-05-05T23:41:57.357Z,23.95
2023-05-05T23:44:29.328Z,23.94
2023-05-05T23:47:01.149Z,23.95
2023-05-05T23:49:30.519Z,23.94
2023-05-05T23:52:01.469Z,23.94
2023-05-05T23:54:33.808Z,23.94
2023-05-05T23:57:03.357Z,23.93
2023-05-05T23:59:33.163Z,23.93
